Eunola, Alabama
Current Conditions -  °F | °C
As of 7:35 PM on Thursday 27 Nov 2014 (Local Time) from KEDN Reporting Station
Clear Clear  
Wind Chill: 41°   Ceiling: Unl
Heat Index: 41°   Visibility: 10mi
Dew Point: 32°   Wind: 3mph
Humidity: 70%   Direction: 350°N
Pressure: 30.4"   Gusts: NA
Location:  31.0669°N, 85.9172°W
Report Text: KEDN 280135Z AUTO 35003KT 10SM CLR 05/00 A3040 RMK AO2
Loading
Personal Weather Stations






























Interactive Weather Map New forecast layout! Learn more

10-Day Weather Forecast

Advertisements
Track Severe Weather on mobile